Tobermory, Canada
Current Conditions -  °F | °C
As of 4:46 PM on Thursday 27 Nov 2014 (Local Time) from CYVV Reporting Station
Light Snow Light Snow  
Wind Chill: 18°   Ceiling: 7000
Heat Index: 27°   Visibility: 12mi
Dew Point: 21°   Wind: 8mph
Humidity: 80%   Direction: 330°NNW
Pressure: 30.11"   Gusts: NA
Location:  45.25°N, 81.67°W
Report Text: CYVV 272146Z 33007KT 300V030 12SM -SN FEW012 SCT018 OVC070 M03/M06 A3011 RMK SF1SC3AS5 SF TR SLP206
Loading
Personal Weather Stations






























Interactive Weather Map New forecast layout! Learn more

10-Day Weather Forecast

Advertisements
Track Severe Weather on mobile